Thursday, January 18, 2018, 12:09 AM GMT
Back to Local

CYOW, Ottawa Int'L. Ont.

Location: , , Canada Lat: 45.317
Local Time: 12:09 AM GMT ( 0:09 GMT) Lon: -75.667
Time Zone: GMT Elev: 380 ft

Show me the last for .
Show Coded

Time T Td Feel RH Dir Speed Gust Alt SLP Vis Weather Sky Remarks
2018-01-17 23:00 19 10 8 67 190° 10 - 30.10 30.14 15 SCT034 BKN130 None
2018-01-17 22:00 21 12 10 67 200° 10 - 30.12 30.15 15 BKN036 BKN140 None
2018-01-17 21:00 21 12 6 67 190° 13 18 30.15 30.18 15 FEW022 BKN039 BKN130 None
2018-01-17 20:00 23 14 13 67 190° 9 - 30.16 30.19 15 BKN022 BKN033 None
2018-01-17 19:00 21 16 9 79 190° 12 - 30.19 30.22 15 SCT019 BKN032 BKN220 None
2018-01-17 18:00 19 14 11 79 200° 6 - 30.22 30.25 15 SCT033 None
2018-01-17 17:33 18 14 12 85 190° 3 - 30.24 30.28 10 BKN025 None
2018-01-17 17:00 16 14 10 92 180° 3 - 30.27 30.30 10 -SN BKN025 None
2018-01-17 16:00 14 10 6 85 200° 5 - 30.31 30.34 6 -SN OVC025 None
2018-01-17 15:45 12 10 4 92 170° 5 - 30.31 30.34 5 -SN OVC025 None
2018-01-17 15:00 12 9 - 85 - Calm - 30.32 30.35 3 -SN BKN023 None
2018-01-17 14:00 10 7 - 84 120° 2 - 30.33 30.36 2 -SN OVC026 None
2018-01-17 13:53 10 7 4 84 130° 3 - 30.33 30.37 2 -SN OVC032 None
2018-01-17 13:19 9 7 - 92 - Calm - 30.33 30.36 8 -SN OVC044 None
2018-01-17 13:00 9 5 - 84 - Calm - 30.33 30.36 10 OVC044 None
2018-01-17 12:00 9 5 - 84 - Calm - 30.34 30.37 10 OVC045 None
2018-01-17 11:50 9 5 - 84 - Calm - 30.34 30.37 10 OVC044 None
2018-01-17 11:00 9 5 2 84 180° 3 - 30.35 30.38 7 -SN OVC044 None
2018-01-17 10:00 9 5 0 84 150° 5 - 30.35 30.38 4 -SN BR OVC048 None
2018-01-17 09:38 7 5 -2 92 160° 5 - 30.35 30.38 4 -SN BR FEW003 OVC050 None
2018-01-17 09:00 7 3 0 84 150° 3 - 30.36 30.39 5 BR OVC004 None
2018-01-17 08:42 5 3 - 92 - Calm - 30.36 30.39 5 BR OVC003 None
2018-01-17 08:20 5 1 - 84 - Calm - 30.36 30.40 5 BR OVC005 None
2018-01-17 08:00 5 1 -2 84 140° 3 - 30.36 30.40 5 BR FEW006 OVC054 None
2018-01-17 07:00 1 -4 -8 77 60° 5 - 30.35 30.39 6 BR FEW007 BKN054 None
2018-01-17 06:00 5 1 -2 84 160° 3 - 30.37 30.40 10 SCT006 None
2018-01-17 05:18 7 3 - 84 160° 2 - 30.37 30.41 15 FEW007 OVC020 None
2018-01-17 05:00 3 0 - 84 80° 2 - 30.37 30.40 15 SCT020 None
2018-01-17 04:00 10 7 - 84 100° 2 - 30.39 30.42 15 SCT007 OVC020 None
2018-01-17 03:33 10 7 - 84 80° 2 - 30.39 30.42 15 OVC007 None
2018-01-17 03:15 10 7 - 84 120° 2 - 30.39 30.42 10 -SN OVC007 None
2018-01-17 03:00 10 7 2 84 130° 5 - 30.39 30.42 15 OVC008 None
2018-01-17 02:00 10 7 - 84 170° 2 - 30.40 30.43 15 OVC011 None
2018-01-17 01:34 7 5 - 92 260° 2 - 30.40 30.44 15 OVC014 None
2018-01-17 01:00 7 3 0 84 210° 3 - 30.40 30.44 15 OVC058 None

Support USWX by starting your Amazon purchase here.